Gonzales, CA

2:45 AM PDT on April 27, 2017 (GMT -0700)
Manzoni Vineyards River Rd, West of Gonzales | | Change Station

Elev 131 ft 36.47 °N, 121.47 °W | Updated 1 second ago

Overcast
Overcast
56.1 °F
Feels Like 56.1 °F
N
0.0
Wind Variable Wind from West
Gusts 0.0 mph

Today
High -- | Low -- °F
--% Chance of Precip.
Yesterday
High -- | Low -- °F
Precip. -- in
Pressure 30.04 in
Visibility 10.0 miles
Clouds Scattered Clouds 800 ft
Overcast 1400 ft
Dew Point 46 °F
Humidity 69%
Rainfall 0.00 in
Snow Depth Not available.
6:16 AM 7:50 PM
New Moon, 1% visible
SPECI KSNS 270940Z AUTO 24010KT 10SM SCT008 OVC014 13/11 A3004 RMK AO2 T01280111
Pressure 30.04 in
Visibility 10.0 miles
Clouds Scattered Clouds 800 ft
Overcast 1400 ft
Dew Point 46 °F
Humidity 69%
Rainfall 0.00 in
Snow Depth Not available.
6:16 AM 7:50 PM
New Moon, 1% visible
SPECI KSNS 270940Z AUTO 24010KT 10SM SCT008 OVC014 13/11 A3004 RMK AO2 T01280111

Get Severe Weather Alerts

Thanks for signing up!

Be on the lookout for a verification email in your inbox.

You'll start receiving the daily forecast at 8 AM.

×

10-Day Weather Forecast

Almanac

Astronomy

Apr. 27, 2017 Rise Set
Actual Time
Civil Twilight
Nautical Twilight
Astronomical Twilight
Moon
Length of Visible Light
Length of Day
Tomorrow will be .
, % of the Moon is Illuminated

Today's Extremes

State Highs State Lows

Community

WunderPhotos

WunderBlog® & News

Nearby

Air Quality

  Air Quality AQ Index Pollutant
Not available.

Snow Depth

Station Depth Elevation

Earthquake Activity

City Distance Mag. Time & Date
Minimum magnitude displayed is 2.5.

Coastal Water Temperatures

Place Temperature

Stations

Nearby Weather Stations

Station Location Temp. Windchill Dew Point Humidity Wind Precip. Elev Updated Type
                   

Watches & Warnings

There are currently no watches in effect.